sensor_id;sensor_type;location;lat;lon;timestamp;temperature;humidity
35523;DHT22;61478;50.820;4.330;2023-03-26T00:01:56;9.90;99.90
35523;DHT22;61478;50.820;4.330;2023-03-26T00:04:23;9.90;99.90
35523;DHT22;61478;50.820;4.330;2023-03-26T00:06:50;9.90;99.90
35523;DHT22;61478;50.820;4.330;2023-03-26T00:09:17;9.90;99.90
35523;DHT22;61478;50.820;4.330;2023-03-26T00:11:43;9.90;99.90
35523;DHT22;61478;50.820;4.330;2023-03-26T00:14:11;9.90;99.90
35523;DHT22;61478;50.820;4.330;2023-03-26T00:16:39;9.90;99.90
35523;DHT22;61478;50.820;4.330;2023-03-26T00:19:08;9.80;99.90
35523;DHT22;61478;50.820;4.330;2023-03-26T00:21:35;9.90;99.90
35523;DHT22;61478;50.820;4.330;2023-03-26T00:24:04;9.80;99.90
35523;DHT22;61478;50.820;4.330;2023-03-26T00:26:35;9.90;99.90
35523;DHT22;61478;50.820;4.330;2023-03-26T00:29:03;9.90;99.90
35523;DHT22;61478;50.820;4.330;2023-03-26T00:31:29;10.10;99.90
35523;DHT22;61478;50.820;4.330;2023-03-26T00:33:55;9.90;99.90
35523;DHT22;61478;50.820;4.330;2023-03-26T00:36:23;9.90;99.90
35523;DHT22;61478;50.820;4.330;2023-03-26T00:38:52;9.90;99.90
35523;DHT22;61478;50.820;4.330;2023-03-26T00:41:20;9.90;99.90
35523;DHT22;61478;50.820;4.330;2023-03-26T00:43:57;10.00;99.90
35523;DHT22;61478;50.820;4.330;2023-03-26T00:46:24;10.00;99.90
35523;DHT22;61478;50.820;4.330;2023-03-26T00:48:50;10.10;99.90
35523;DHT22;61478;50.820;4.330;2023-03-26T00:51:18;10.10;99.90
35523;DHT22;61478;50.820;4.330;2023-03-26T00:53:45;10.00;99.90
35523;DHT22;61478;50.820;4.330;2023-03-26T00:56:12;10.00;99.90
35523;DHT22;61478;50.820;4.330;2023-03-26T00:58:38;10.00;99.90
35523;DHT22;61478;50.820;4.330;2023-03-26T01:01:08;9.90;99.90
35523;DHT22;61478;50.820;4.330;2023-03-26T01:03:36;9.80;99.90
35523;DHT22;61478;50.820;4.330;2023-03-26T01:06:07;9.80;99.90
35523;DHT22;61478;50.820;4.330;2023-03-26T01:11:03;9.70;99.90
35523;DHT22;61478;50.820;4.330;2023-03-26T01:13:35;9.80;99.90
35523;DHT22;61478;50.820;4.330;2023-03-26T01:16:02;9.80;99.90
35523;DHT22;61478;50.820;4.330;2023-03-26T01:18:31;10.00;99.90
35523;DHT22;61478;50.820;4.330;2023-03-26T01:21:00;10.10;99.90
35523;DHT22;61478;50.820;4.330;2023-03-26T01:24:00;10.20;99.90
35523;DHT22;61478;50.820;4.330;2023-03-26T01:26:44;10.00;99.90
35523;DHT22;61478;50.820;4.330;2023-03-26T01:32:24;9.90;99.90
35523;DHT22;61478;50.820;4.330;2023-03-26T01:37:28;9.60;99.90
35523;DHT22;61478;50.820;4.330;2023-03-26T01:40:04;9.70;99.90
35523;DHT22;61478;50.820;4.330;2023-03-26T01:42:40;9.70;99.90
35523;DHT22;61478;50.820;4.330;2023-03-26T01:45:15;9.60;99.90
35523;DHT22;61478;50.820;4.330;2023-03-26T01:47:44;9.60;99.90
35523;DHT22;61478;50.820;4.330;2023-03-26T01:50:11;9.80;99.90
35523;DHT22;61478;50.820;4.330;2023-03-26T01:52:37;10.00;99.90
35523;DHT22;61478;50.820;4.330;2023-03-26T01:55:04;10.00;99.90
35523;DHT22;61478;50.820;4.330;2023-03-26T02:00:24;10.10;99.90
35523;DHT22;61478;50.820;4.330;2023-03-26T02:06:08;9.80;99.90
35523;DHT22;61478;50.820;4.330;2023-03-26T02:08:48;9.60;99.90
35523;DHT22;61478;50.820;4.330;2023-03-26T02:11:15;9.60;99.90
35523;DHT22;61478;50.820;4.330;2023-03-26T02:13:43;9.60;99.90
35523;DHT22;61478;50.820;4.330;2023-03-26T02:16:13;9.40;99.90
35523;DHT22;61478;50.820;4.330;2023-03-26T02:18:45;9.40;99.90
35523;DHT22;61478;50.820;4.330;2023-03-26T02:21:14;9.40;99.90
35523;DHT22;61478;50.820;4.330;2023-03-26T02:23:46;9.40;99.90
35523;DHT22;61478;50.820;4.330;2023-03-26T02:26:18;9.50;99.90
35523;DHT22;61478;50.820;4.330;2023-03-26T02:28:45;9.50;99.90
35523;DHT22;61478;50.820;4.330;2023-03-26T02:31:11;9.60;99.90
35523;DHT22;61478;50.820;4.330;2023-03-26T02:33:38;9.60;99.90
35523;DHT22;61478;50.820;4.330;2023-03-26T02:36:05;9.70;99.90
35523;DHT22;61478;50.820;4.330;2023-03-26T02:38:33;9.70;99.90
35523;DHT22;61478;50.820;4.330;2023-03-26T02:41:00;9.70;99.90
35523;DHT22;61478;50.820;4.330;2023-03-26T02:43:26;9.60;99.90
35523;DHT22;61478;50.820;4.330;2023-03-26T02:45:52;9.60;99.90
35523;DHT22;61478;50.820;4.330;2023-03-26T02:48:18;9.60;99.90
35523;DHT22;61478;50.820;4.330;2023-03-26T02:50:45;9.60;99.90
35523;DHT22;61478;50.820;4.330;2023-03-26T02:53:15;9.60;99.90
35523;DHT22;61478;50.820;4.330;2023-03-26T02:55:41;9.70;99.90
35523;DHT22;61478;50.820;4.330;2023-03-26T02:58:07;9.70;99.90
35523;DHT22;61478;50.820;4.330;2023-03-26T03:00:34;9.70;99.90
35523;DHT22;61478;50.820;4.330;2023-03-26T03:03:00;9.80;99.90
35523;DHT22;61478;50.820;4.330;2023-03-26T03:05:30;9.80;99.90
35523;DHT22;61478;50.820;4.330;2023-03-26T03:07:59;9.70;99.90
35523;DHT22;61478;50.820;4.330;2023-03-26T03:10:26;9.80;99.90
35523;DHT22;61478;50.820;4.330;2023-03-26T03:12:53;9.90;99.90
35523;DHT22;61478;50.820;4.330;2023-03-26T03:15:19;9.90;99.90
35523;DHT22;61478;50.820;4.330;2023-03-26T03:17:45;9.90;99.90
35523;DHT22;61478;50.820;4.330;2023-03-26T03:20:12;9.80;99.90
35523;DHT22;61478;50.820;4.330;2023-03-26T03:22:38;9.80;99.90
35523;DHT22;61478;50.820;4.330;2023-03-26T03:25:05;9.70;99.90
35523;DHT22;61478;50.820;4.330;2023-03-26T03:27:34;9.70;99.90
35523;DHT22;61478;50.820;4.330;2023-03-26T03:30:00;9.80;99.90
35523;DHT22;61478;50.820;4.330;2023-03-26T03:32:25;10.00;99.90
35523;DHT22;61478;50.820;4.330;2023-03-26T03:34:52;10.10;99.90
35523;DHT22;61478;50.820;4.330;2023-03-26T03:37:20;10.10;99.90
35523;DHT22;61478;50.820;4.330;2023-03-26T03:39:46;10.10;99.90
35523;DHT22;61478;50.820;4.330;2023-03-26T03:42:12;10.20;99.90
35523;DHT22;61478;50.820;4.330;2023-03-26T03:44:38;10.20;99.90
35523;DHT22;61478;50.820;4.330;2023-03-26T03:47:04;10.10;99.90
35523;DHT22;61478;50.820;4.330;2023-03-26T03:49:29;10.20;99.90
35523;DHT22;61478;50.820;4.330;2023-03-26T03:51:55;10.10;99.90
35523;DHT22;61478;50.820;4.330;2023-03-26T03:54:21;10.20;99.90
35523;DHT22;61478;50.820;4.330;2023-03-26T03:56:47;10.30;99.90
35523;DHT22;61478;50.820;4.330;2023-03-26T03:59:13;10.30;99.90
35523;DHT22;61478;50.820;4.330;2023-03-26T04:01:40;10.10;99.90
35523;DHT22;61478;50.820;4.330;2023-03-26T04:04:11;10.10;99.90
35523;DHT22;61478;50.820;4.330;2023-03-26T04:06:37;10.00;99.90
35523;DHT22;61478;50.820;4.330;2023-03-26T04:09:03;10.20;99.90
35523;DHT22;61478;50.820;4.330;2023-03-26T04:11:29;10.20;99.90
35523;DHT22;61478;50.820;4.330;2023-03-26T04:13:55;10.20;99.90
35523;DHT22;61478;50.820;4.330;2023-03-26T04:16:21;10.10;99.90
35523;DHT22;61478;50.820;4.330;2023-03-26T04:18:47;10.00;99.90
35523;DHT22;61478;50.820;4.330;2023-03-26T04:21:13;9.90;99.90
35523;DHT22;61478;50.820;4.330;2023-03-26T04:23:40;9.90;99.90
35523;DHT22;61478;50.820;4.330;2023-03-26T04:26:13;9.90;99.90
35523;DHT22;61478;50.820;4.330;2023-03-26T04:28:47;9.90;99.90
35523;DHT22;61478;50.820;4.330;2023-03-26T04:31:16;10.00;99.90
35523;DHT22;61478;50.820;4.330;2023-03-26T04:33:46;9.90;99.90
35523;DHT22;61478;50.820;4.330;2023-03-26T04:36:14;9.80;99.90
35523;DHT22;61478;50.820;4.330;2023-03-26T04:38:44;9.90;99.90
35523;DHT22;61478;50.820;4.330;2023-03-26T04:41:14;10.00;99.90
35523;DHT22;61478;50.820;4.330;2023-03-26T04:43:40;9.90;99.90
35523;DHT22;61478;50.820;4.330;2023-03-26T04:46:15;9.80;99.90
35523;DHT22;61478;50.820;4.330;2023-03-26T04:48:49;9.80;99.90
35523;DHT22;61478;50.820;4.330;2023-03-26T04:51:16;9.70;99.90
35523;DHT22;61478;50.820;4.330;2023-03-26T04:53:50;9.80;99.90
35523;DHT22;61478;50.820;4.330;2023-03-26T04:58:59;9.80;99.90
35523;DHT22;61478;50.820;4.330;2023-03-26T05:01:25;9.80;99.90
35523;DHT22;61478;50.820;4.330;2023-03-26T05:03:56;9.70;99.90
35523;DHT22;61478;50.820;4.330;2023-03-26T05:06:25;9.80;99.90
35523;DHT22;61478;50.820;4.330;2023-03-26T05:08:55;10.00;99.90
35523;DHT22;61478;50.820;4.330;2023-03-26T05:11:21;10.10;99.90
35523;DHT22;61478;50.820;4.330;2023-03-26T05:13:47;10.20;99.90
35523;DHT22;61478;50.820;4.330;2023-03-26T05:16:13;10.30;99.90
35523;DHT22;61478;50.820;4.330;2023-03-26T05:18:39;10.50;99.90
35523;DHT22;61478;50.820;4.330;2023-03-26T05:21:04;10.70;99.90
35523;DHT22;61478;50.820;4.330;2023-03-26T05:23:31;10.70;99.90
35523;DHT22;61478;50.820;4.330;2023-03-26T05:25:57;10.60;99.90
35523;DHT22;61478;50.820;4.330;2023-03-26T05:28:23;10.70;99.90
35523;DHT22;61478;50.820;4.330;2023-03-26T05:30:51;10.80;99.90
35523;DHT22;61478;50.820;4.330;2023-03-26T05:33:19;10.70;99.90
35523;DHT22;61478;50.820;4.330;2023-03-26T05:35:45;10.40;99.90
35523;DHT22;61478;50.820;4.330;2023-03-26T05:38:11;10.50;99.90
35523;DHT22;61478;50.820;4.330;2023-03-26T05:40:37;10.60;99.90
35523;DHT22;61478;50.820;4.330;2023-03-26T05:43:03;10.60;99.90
35523;DHT22;61478;50.820;4.330;2023-03-26T05:45:29;10.60;99.90
35523;DHT22;61478;50.820;4.330;2023-03-26T05:47:55;10.70;99.90
35523;DHT22;61478;50.820;4.330;2023-03-26T05:50:21;10.50;99.90
35523;DHT22;61478;50.820;4.330;2023-03-26T05:52:47;10.60;99.90
35523;DHT22;61478;50.820;4.330;2023-03-26T05:55:13;10.60;99.90
35523;DHT22;61478;50.820;4.330;2023-03-26T05:57:39;10.60;99.90
35523;DHT22;61478;50.820;4.330;2023-03-26T06:00:07;10.20;99.90
35523;DHT22;61478;50.820;4.330;2023-03-26T06:02:36;10.20;99.90
35523;DHT22;61478;50.820;4.330;2023-03-26T06:05:03;10.20;99.90
35523;DHT22;61478;50.820;4.330;2023-03-26T06:07:29;10.30;99.90
35523;DHT22;61478;50.820;4.330;2023-03-26T06:09:55;10.50;99.90
35523;DHT22;61478;50.820;4.330;2023-03-26T06:12:21;10.60;99.90
35523;DHT22;61478;50.820;4.330;2023-03-26T06:14:47;10.60;99.90
35523;DHT22;61478;50.820;4.330;2023-03-26T06:17:13;10.50;99.90
35523;DHT22;61478;50.820;4.330;2023-03-26T06:19:39;10.10;99.90
35523;DHT22;61478;50.820;4.330;2023-03-26T06:22:05;9.80;99.90
35523;DHT22;61478;50.820;4.330;2023-03-26T06:24:31;9.70;99.90
35523;DHT22;61478;50.820;4.330;2023-03-26T06:26:58;9.70;99.90
35523;DHT22;61478;50.820;4.330;2023-03-26T06:29:24;9.60;99.90
35523;DHT22;61478;50.820;4.330;2023-03-26T06:31:50;9.50;99.90
35523;DHT22;61478;50.820;4.330;2023-03-26T06:34:16;9.50;99.90
35523;DHT22;61478;50.820;4.330;2023-03-26T06:36:42;9.40;99.90
35523;DHT22;61478;50.820;4.330;2023-03-26T06:39:13;9.50;99.90
35523;DHT22;61478;50.820;4.330;2023-03-26T06:41:46;9.70;99.90
35523;DHT22;61478;50.820;4.330;2023-03-26T06:44:12;10.00;99.90
35523;DHT22;61478;50.820;4.330;2023-03-26T06:46:38;10.10;99.90
35523;DHT22;61478;50.820;4.330;2023-03-26T06:49:07;10.00;99.90
35523;DHT22;61478;50.820;4.330;2023-03-26T06:51:33;10.00;99.90
35523;DHT22;61478;50.820;4.330;2023-03-26T06:53:59;9.70;99.90
35523;DHT22;61478;50.820;4.330;2023-03-26T06:56:26;9.50;99.90
35523;DHT22;61478;50.820;4.330;2023-03-26T06:58:52;9.70;99.90
35523;DHT22;61478;50.820;4.330;2023-03-26T07:01:18;9.60;99.90
35523;DHT22;61478;50.820;4.330;2023-03-26T07:03:44;9.70;99.90
35523;DHT22;61478;50.820;4.330;2023-03-26T07:06:09;9.70;99.90
35523;DHT22;61478;50.820;4.330;2023-03-26T07:08:38;9.70;99.90
35523;DHT22;61478;50.820;4.330;2023-03-26T07:11:04;9.80;99.90
35523;DHT22;61478;50.820;4.330;2023-03-26T07:13:30;9.80;99.90
35523;DHT22;61478;50.820;4.330;2023-03-26T07:15:56;9.80;99.90
35523;DHT22;61478;50.820;4.330;2023-03-26T07:18:22;9.70;99.90
35523;DHT22;61478;50.820;4.330;2023-03-26T07:20:48;9.70;99.90
35523;DHT22;61478;50.820;4.330;2023-03-26T07:23:14;9.70;99.90
35523;DHT22;61478;50.820;4.330;2023-03-26T07:25:45;9.80;99.90
35523;DHT22;61478;50.820;4.330;2023-03-26T07:28:19;9.80;99.90
35523;DHT22;61478;50.820;4.330;2023-03-26T07:36:54;10.00;99.90
35523;DHT22;61478;50.820;4.330;2023-03-26T07:42:19;9.80;99.90
35523;DHT22;61478;50.820;4.330;2023-03-26T07:45:22;9.80;99.90
35523;DHT22;61478;50.820;4.330;2023-03-26T07:47:50;9.80;99.90
35523;DHT22;61478;50.820;4.330;2023-03-26T07:50:21;9.80;99.90
35523;DHT22;61478;50.820;4.330;2023-03-26T07:52:47;9.80;99.90
35523;DHT22;61478;50.820;4.330;2023-03-26T07:55:14;9.80;99.90
35523;DHT22;61478;50.820;4.330;2023-03-26T08:00:49;9.80;99.90
35523;DHT22;61478;50.820;4.330;2023-03-26T08:03:44;9.80;99.90
35523;DHT22;61478;50.820;4.330;2023-03-26T08:06:33;9.90;99.90
35523;DHT22;61478;50.820;4.330;2023-03-26T08:19:52;9.60;99.90
35523;DHT22;61478;50.820;4.330;2023-03-26T08:22:30;9.60;99.90
35523;DHT22;61478;50.820;4.330;2023-03-26T08:28:02;9.60;99.90
35523;DHT22;61478;50.820;4.330;2023-03-26T08:30:29;9.70;99.90
35523;DHT22;61478;50.820;4.330;2023-03-26T08:35:36;9.60;99.90
35523;DHT22;61478;50.820;4.330;2023-03-26T08:38:10;9.60;99.90
35523;DHT22;61478;50.820;4.330;2023-03-26T08:43:53;9.50;99.90
35523;DHT22;61478;50.820;4.330;2023-03-26T08:55:14;9.60;99.90
35523;DHT22;61478;50.820;4.330;2023-03-26T09:20:28;9.70;99.90
35523;DHT22;61478;50.820;4.330;2023-03-26T09:29:07;9.70;99.90
35523;DHT22;61478;50.820;4.330;2023-03-26T09:32:14;9.90;99.90
35523;DHT22;61478;50.820;4.330;2023-03-26T09:37:17;9.80;99.90
35523;DHT22;61478;50.820;4.330;2023-03-26T09:45:57;9.90;99.90
35523;DHT22;61478;50.820;4.330;2023-03-26T09:54:35;9.90;99.90
35523;DHT22;61478;50.820;4.330;2023-03-26T09:57:50;9.80;99.90
35523;DHT22;61478;50.820;4.330;2023-03-26T10:00:56;9.80;99.90
35523;DHT22;61478;50.820;4.330;2023-03-26T10:12:04;10.00;99.90
35523;DHT22;61478;50.820;4.330;2023-03-26T10:15:00;10.00;99.90
35523;DHT22;61478;50.820;4.330;2023-03-26T10:37:31;10.40;99.90
35523;DHT22;61478;50.820;4.330;2023-03-26T10:40:43;10.40;99.90
35523;DHT22;61478;50.820;4.330;2023-03-26T10:48:35;10.20;99.90
35523;DHT22;61478;50.820;4.330;2023-03-26T10:53:55;10.30;99.90
35523;DHT22;61478;50.820;4.330;2023-03-26T10:58:56;10.60;99.90
35523;DHT22;61478;50.820;4.330;2023-03-26T11:09:57;10.70;99.90
35523;DHT22;61478;50.820;4.330;2023-03-26T11:15:21;10.80;99.90
35523;DHT22;61478;50.820;4.330;2023-03-26T11:23:36;10.80;99.90
35523;DHT22;61478;50.820;4.330;2023-03-26T11:26:04;10.90;99.90
35523;DHT22;61478;50.820;4.330;2023-03-26T11:31:16;11.00;99.90
35523;DHT22;61478;50.820;4.330;2023-03-26T11:33:47;11.00;99.90
35523;DHT22;61478;50.820;4.330;2023-03-26T11:36:25;11.00;99.90
35523;DHT22;61478;50.820;4.330;2023-03-26T11:38:56;11.10;99.90
35523;DHT22;61478;50.820;4.330;2023-03-26T11:41:28;11.10;99.90
35523;DHT22;61478;50.820;4.330;2023-03-26T11:44:00;11.00;99.90
35523;DHT22;61478;50.820;4.330;2023-03-26T11:46:29;11.00;99.90
35523;DHT22;61478;50.820;4.330;2023-03-26T11:49:02;11.10;99.90
35523;DHT22;61478;50.820;4.330;2023-03-26T11:51:36;11.10;99.90
35523;DHT22;61478;50.820;4.330;2023-03-26T11:54:04;11.10;99.90
35523;DHT22;61478;50.820;4.330;2023-03-26T11:56:52;11.10;99.90
35523;DHT22;61478;50.820;4.330;2023-03-26T11:59:26;11.10;99.90
35523;DHT22;61478;50.820;4.330;2023-03-26T12:01:58;11.20;99.90
35523;DHT22;61478;50.820;4.330;2023-03-26T12:04:44;11.30;99.90
35523;DHT22;61478;50.820;4.330;2023-03-26T12:07:21;11.30;99.90
35523;DHT22;61478;50.820;4.330;2023-03-26T12:09:56;11.40;99.90
35523;DHT22;61478;50.820;4.330;2023-03-26T12:12:40;11.40;99.90
35523;DHT22;61478;50.820;4.330;2023-03-26T12:15:17;11.50;99.90
35523;DHT22;61478;50.820;4.330;2023-03-26T12:17:50;11.60;99.90
35523;DHT22;61478;50.820;4.330;2023-03-26T12:23:00;11.60;99.90
35523;DHT22;61478;50.820;4.330;2023-03-26T12:25:46;11.60;99.90
35523;DHT22;61478;50.820;4.330;2023-03-26T12:28:31;11.50;99.90
35523;DHT22;61478;50.820;4.330;2023-03-26T12:31:00;11.40;99.90
35523;DHT22;61478;50.820;4.330;2023-03-26T12:33:32;11.50;99.90
35523;DHT22;61478;50.820;4.330;2023-03-26T12:36:22;11.60;99.90
35523;DHT22;61478;50.820;4.330;2023-03-26T12:38:51;11.60;99.90
35523;DHT22;61478;50.820;4.330;2023-03-26T12:41:20;11.50;99.90
35523;DHT22;61478;50.820;4.330;2023-03-26T12:43:55;11.60;99.90
35523;DHT22;61478;50.820;4.330;2023-03-26T12:48:56;11.60;99.90
35523;DHT22;61478;50.820;4.330;2023-03-26T12:57:23;11.60;99.90
35523;DHT22;61478;50.820;4.330;2023-03-26T13:04:01;11.50;99.90
35523;DHT22;61478;50.820;4.330;2023-03-26T13:14:37;11.60;99.90
35523;DHT22;61478;50.820;4.330;2023-03-26T13:17:11;11.70;99.90
35523;DHT22;61478;50.820;4.330;2023-03-26T13:31:09;11.80;99.90
35523;DHT22;61478;50.820;4.330;2023-03-26T13:33:56;11.70;99.90
35523;DHT22;61478;50.820;4.330;2023-03-26T13:36:39;11.80;99.90
35523;DHT22;61478;50.820;4.330;2023-03-26T13:39:31;11.80;99.90
35523;DHT22;61478;50.820;4.330;2023-03-26T13:47:56;11.80;99.90
35523;DHT22;61478;50.820;4.330;2023-03-26T13:50:36;11.80;99.90
35523;DHT22;61478;50.820;4.330;2023-03-26T13:53:23;11.90;99.90
35523;DHT22;61478;50.820;4.330;2023-03-26T13:55:59;11.80;99.90
35523;DHT22;61478;50.820;4.330;2023-03-26T13:58:39;11.80;99.90
35523;DHT22;61478;50.820;4.330;2023-03-26T14:01:19;11.80;99.90
35523;DHT22;61478;50.820;4.330;2023-03-26T14:03:53;11.80;99.90
35523;DHT22;61478;50.820;4.330;2023-03-26T14:09:21;11.80;99.90
35523;DHT22;61478;50.820;4.330;2023-03-26T14:12:13;11.90;99.90
35523;DHT22;61478;50.820;4.330;2023-03-26T14:17:27;11.90;99.90
35523;DHT22;61478;50.820;4.330;2023-03-26T14:46:05;11.80;99.90
35523;DHT22;61478;50.820;4.330;2023-03-26T14:54:07;11.80;99.90
35523;DHT22;61478;50.820;4.330;2023-03-26T15:08:30;11.90;99.90
35523;DHT22;61478;50.820;4.330;2023-03-26T15:11:30;11.80;99.90
35523;DHT22;61478;50.820;4.330;2023-03-26T15:24:43;11.90;99.90
35523;DHT22;61478;50.820;4.330;2023-03-26T15:27:48;11.90;99.90
35523;DHT22;61478;50.820;4.330;2023-03-26T15:42:58;12.00;99.90
35523;DHT22;61478;50.820;4.330;2023-03-26T15:53:39;12.00;99.90
35523;DHT22;61478;50.820;4.330;2023-03-26T16:02:10;11.90;99.90
35523;DHT22;61478;50.820;4.330;2023-03-26T16:04:54;12.00;99.90
35523;DHT22;61478;50.820;4.330;2023-03-26T16:07:27;12.00;99.90
35523;DHT22;61478;50.820;4.330;2023-03-26T16:15:55;11.70;99.90
35523;DHT22;61478;50.820;4.330;2023-03-26T16:18:33;11.50;99.90
35523;DHT22;61478;50.820;4.330;2023-03-26T16:26:26;11.30;99.90
35523;DHT22;61478;50.820;4.330;2023-03-26T16:34:57;11.40;99.90
35523;DHT22;61478;50.820;4.330;2023-03-26T16:37:42;11.50;99.90
35523;DHT22;61478;50.820;4.330;2023-03-26T16:46:24;11.40;99.90
35523;DHT22;61478;50.820;4.330;2023-03-26T16:48:34;11.40;99.90
35523;DHT22;61478;50.820;4.330;2023-03-26T17:02:31;11.40;99.90
35523;DHT22;61478;50.820;4.330;2023-03-26T17:05:42;11.40;99.90
35523;DHT22;61478;50.820;4.330;2023-03-26T17:08:17;11.30;99.90
35523;DHT22;61478;50.820;4.330;2023-03-26T17:16:34;11.30;99.90
35523;DHT22;61478;50.820;4.330;2023-03-26T17:19:25;11.40;99.90
35523;DHT22;61478;50.820;4.330;2023-03-26T17:22:04;11.40;99.90
35523;DHT22;61478;50.820;4.330;2023-03-26T17:24:51;11.40;99.90
35523;DHT22;61478;50.820;4.330;2023-03-26T17:33:09;11.40;99.90
35523;DHT22;61478;50.820;4.330;2023-03-26T17:35:45;11.40;99.90
35523;DHT22;61478;50.820;4.330;2023-03-26T17:40:54;11.40;99.90
35523;DHT22;61478;50.820;4.330;2023-03-26T17:46:36;11.30;99.90
35523;DHT22;61478;50.820;4.330;2023-03-26T17:51:55;11.30;99.90
35523;DHT22;61478;50.820;4.330;2023-03-26T17:54:39;11.20;99.90
35523;DHT22;61478;50.820;4.330;2023-03-26T17:57:31;11.20;99.90
35523;DHT22;61478;50.820;4.330;2023-03-26T18:00:00;11.20;99.90
35523;DHT22;61478;50.820;4.330;2023-03-26T18:02:36;11.10;99.90
35523;DHT22;61478;50.820;4.330;2023-03-26T18:05:09;11.10;99.90
35523;DHT22;61478;50.820;4.330;2023-03-26T18:13:04;11.10;99.90
35523;DHT22;61478;50.820;4.330;2023-03-26T18:19:01;11.20;99.90
35523;DHT22;61478;50.820;4.330;2023-03-26T18:21:38;11.20;99.90
35523;DHT22;61478;50.820;4.330;2023-03-26T18:24:13;11.20;99.90
35523;DHT22;61478;50.820;4.330;2023-03-26T18:26:42;11.20;99.90
35523;DHT22;61478;50.820;4.330;2023-03-26T18:29:20;11.10;99.90
35523;DHT22;61478;50.820;4.330;2023-03-26T18:34:29;11.10;99.90
35523;DHT22;61478;50.820;4.330;2023-03-26T18:37:18;11.10;99.90
35523;DHT22;61478;50.820;4.330;2023-03-26T18:40:07;11.20;99.90
35523;DHT22;61478;50.820;4.330;2023-03-26T18:42:36;11.10;99.90
35523;DHT22;61478;50.820;4.330;2023-03-26T18:45:07;11.10;99.90
35523;DHT22;61478;50.820;4.330;2023-03-26T18:47:33;11.00;99.90
35523;DHT22;61478;50.820;4.330;2023-03-26T18:50:01;11.00;99.90
35523;DHT22;61478;50.820;4.330;2023-03-26T18:52:29;10.90;99.90
35523;DHT22;61478;50.820;4.330;2023-03-26T18:54:56;11.00;99.90
35523;DHT22;61478;50.820;4.330;2023-03-26T18:57:28;10.90;99.90
35523;DHT22;61478;50.820;4.330;2023-03-26T19:00:04;10.90;99.90
35523;DHT22;61478;50.820;4.330;2023-03-26T19:02:40;10.90;99.90
35523;DHT22;61478;50.820;4.330;2023-03-26T19:05:10;10.80;99.90
35523;DHT22;61478;50.820;4.330;2023-03-26T19:07:37;10.80;99.90
35523;DHT22;61478;50.820;4.330;2023-03-26T19:10:03;10.80;99.90
35523;DHT22;61478;50.820;4.330;2023-03-26T19:12:31;10.70;99.90
35523;DHT22;61478;50.820;4.330;2023-03-26T19:17:41;10.70;99.90
35523;DHT22;61478;50.820;4.330;2023-03-26T19:20:29;10.60;99.90
35523;DHT22;61478;50.820;4.330;2023-03-26T19:22:57;10.50;99.90
35523;DHT22;61478;50.820;4.330;2023-03-26T19:25:39;10.50;99.90
35523;DHT22;61478;50.820;4.330;2023-03-26T19:28:15;10.40;99.90
35523;DHT22;61478;50.820;4.330;2023-03-26T19:30:42;10.40;99.90
35523;DHT22;61478;50.820;4.330;2023-03-26T19:33:14;10.40;99.90
35523;DHT22;61478;50.820;4.330;2023-03-26T19:35:41;10.40;99.90
35523;DHT22;61478;50.820;4.330;2023-03-26T19:38:24;10.50;99.90
35523;DHT22;61478;50.820;4.330;2023-03-26T19:40:53;10.40;99.90
35523;DHT22;61478;50.820;4.330;2023-03-26T19:43:19;10.40;99.90
35523;DHT22;61478;50.820;4.330;2023-03-26T19:45:45;10.40;99.90
35523;DHT22;61478;50.820;4.330;2023-03-26T19:48:17;10.30;99.90
35523;DHT22;61478;50.820;4.330;2023-03-26T19:50:53;10.20;99.90
35523;DHT22;61478;50.820;4.330;2023-03-26T19:53:30;10.10;99.90
35523;DHT22;61478;50.820;4.330;2023-03-26T19:58:34;10.20;99.90
35523;DHT22;61478;50.820;4.330;2023-03-26T20:01:01;10.00;99.90
35523;DHT22;61478;50.820;4.330;2023-03-26T20:03:34;10.00;99.90
35523;DHT22;61478;50.820;4.330;2023-03-26T20:06:01;10.00;99.90
35523;DHT22;61478;50.820;4.330;2023-03-26T20:08:27;9.90;99.90
35523;DHT22;61478;50.820;4.330;2023-03-26T20:10:55;9.80;99.90
35523;DHT22;61478;50.820;4.330;2023-03-26T20:13:21;9.80;99.90
35523;DHT22;61478;50.820;4.330;2023-03-26T20:16:03;9.70;99.90
35523;DHT22;61478;50.820;4.330;2023-03-26T20:18:33;9.80;99.90
35523;DHT22;61478;50.820;4.330;2023-03-26T20:20:59;9.80;99.90
35523;DHT22;61478;50.820;4.330;2023-03-26T20:23:25;9.90;99.90
35523;DHT22;61478;50.820;4.330;2023-03-26T20:25:53;9.90;99.90
35523;DHT22;61478;50.820;4.330;2023-03-26T20:28:19;9.90;99.90
35523;DHT22;61478;50.820;4.330;2023-03-26T20:30:46;9.80;99.90
35523;DHT22;61478;50.820;4.330;2023-03-26T20:33:19;9.70;99.90
35523;DHT22;61478;50.820;4.330;2023-03-26T20:35:45;9.80;99.90
35523;DHT22;61478;50.820;4.330;2023-03-26T20:38:11;9.70;99.90
35523;DHT22;61478;50.820;4.330;2023-03-26T20:40:38;9.60;99.90
35523;DHT22;61478;50.820;4.330;2023-03-26T20:43:08;9.60;99.90
35523;DHT22;61478;50.820;4.330;2023-03-26T20:45:35;9.50;99.90
35523;DHT22;61478;50.820;4.330;2023-03-26T20:48:01;9.50;99.90
35523;DHT22;61478;50.820;4.330;2023-03-26T20:50:27;9.50;99.90
35523;DHT22;61478;50.820;4.330;2023-03-26T20:52:53;9.50;99.90
35523;DHT22;61478;50.820;4.330;2023-03-26T20:55:20;9.50;99.90
35523;DHT22;61478;50.820;4.330;2023-03-26T20:57:46;9.60;99.90
35523;DHT22;61478;50.820;4.330;2023-03-26T21:00:14;9.60;99.90
35523;DHT22;61478;50.820;4.330;2023-03-26T21:02:44;9.70;99.90
35523;DHT22;61478;50.820;4.330;2023-03-26T21:05:11;9.70;99.90
35523;DHT22;61478;50.820;4.330;2023-03-26T21:07:42;9.70;99.90
35523;DHT22;61478;50.820;4.330;2023-03-26T21:10:10;9.70;99.90
35523;DHT22;61478;50.820;4.330;2023-03-26T21:12:43;9.60;99.90
35523;DHT22;61478;50.820;4.330;2023-03-26T21:15:11;9.60;99.90
35523;DHT22;61478;50.820;4.330;2023-03-26T21:17:38;9.50;99.90
35523;DHT22;61478;50.820;4.330;2023-03-26T21:20:04;9.60;99.90
35523;DHT22;61478;50.820;4.330;2023-03-26T21:25:47;9.60;99.90
35523;DHT22;61478;50.820;4.330;2023-03-26T21:30:43;9.60;99.90
35523;DHT22;61478;50.820;4.330;2023-03-26T21:33:09;9.70;99.90
35523;DHT22;61478;50.820;4.330;2023-03-26T21:35:35;9.70;99.90
35523;DHT22;61478;50.820;4.330;2023-03-26T21:38:05;9.60;99.90
35523;DHT22;61478;50.820;4.330;2023-03-26T21:40:31;9.70;99.90
35523;DHT22;61478;50.820;4.330;2023-03-26T21:42:57;9.70;99.90
35523;DHT22;61478;50.820;4.330;2023-03-26T21:45:24;9.80;99.90
35523;DHT22;61478;50.820;4.330;2023-03-26T21:47:50;9.70;99.90
35523;DHT22;61478;50.820;4.330;2023-03-26T21:50:18;9.60;99.90
35523;DHT22;61478;50.820;4.330;2023-03-26T21:52:45;9.50;99.90
35523;DHT22;61478;50.820;4.330;2023-03-26T21:55:22;9.40;99.90
35523;DHT22;61478;50.820;4.330;2023-03-26T21:58:11;9.40;99.90
35523;DHT22;61478;50.820;4.330;2023-03-26T22:06:12;9.50;99.90
35523;DHT22;61478;50.820;4.330;2023-03-26T22:08:40;9.50;99.90
35523;DHT22;61478;50.820;4.330;2023-03-26T22:11:08;9.50;99.90
35523;DHT22;61478;50.820;4.330;2023-03-26T22:13:34;9.50;99.90